NCAR-RAP Real-Time Weather Data

Output produced by METARs form (06 May 2021  15:54 UTC)
found at http://weather.rap.ucar.edu/surface/
 
KSEA 061453Z 19008KT 10SM BKN120 OVC180 14/06 A2988 RMK AO2 SLP122 60000 T01390061 53013
KSEA 061353Z 20010KT 10SM BKN120 OVC180 14/06 A2986 RMK AO2 SLP116 T01390056
KSEA 061253Z 18007KT 10SM SCT060 BKN120 OVC180 14/04 A2985 RMK AO2 RAB38E45 SLP112 VIRGA S P0000 T01390044
KSEA 061153Z 17007KT 10SM BKN130 OVC180 13/04 A2984 RMK AO2 SLP109 T01330044 10150 20111 53002
KSEA 061053Z 17007KT 10SM BKN180 OVC250 13/07 A2983 RMK AO2 SLP105 T01280072
KSEA 060953Z 17007KT 10SM SCT150 BKN190 OVC250 12/08 A2982 RMK AO2 SLP105 T01170078
KSEA 060853Z 24007KT 10SM BKN150 BKN180 OVC250 11/08 A2983 RMK AO2 SLP106 T01110083 56006
KSEA 060753Z 00000KT 10SM SCT180 BKN250 13/08 A2983 RMK AO2 SLP107 T01330083
KSEA 060653Z 00000KT 10SM SCT190 BKN250 14/08 A2983 RMK AO2 SLP108 T01390078 402170072
KSEA 060553Z 34004KT 10SM FEW220 OVC250 14/08 A2985 RMK AO2 SLP112 T01390083 10217 20139 50000
KSEA 060453Z 32005KT 10SM FEW150 BKN250 14/09 A2985 RMK AO2 SLP114 T01440089
KSEA 060353Z 34005KT 10SM FEW150 BKN250 16/09 A2985 RMK AO2 SLP113 T01610094